Time;durP1;ratioP1;P1;durP2;ratioP2;P2;SDS_P1;SDS_P2;PMS_P1;PMS_P2;Temp;Humidity;BMP_temperature;BMP_pressure;BME280_temperature;BME280_humidity;BME280_pressure;Samples;Min_cycle;Max_cycle;Signal;HPM_P1;HPM_P2
2022/11/05 00:09:36;;;;;;;10.37;9.47;;;10.00;99.90;;;;;;4992368;28;20560;-92
2022/11/05 00:17:35;;;;;;;11.47;10.50;;;10.20;99.90;;;;;;4991098;28;20625;-91
2022/11/05 00:20:03;;;;;;;11.20;10.27;;;9.70;99.90;;;;;;4995895;28;20639;-91
2022/11/05 00:25:15;;;;;;;11.53;9.57;;;10.20;99.90;;;;;;4980568;28;20564;-93
2022/11/05 00:27:44;;;;;;;10.20;9.20;;;9.60;99.90;;;;;;4984378;28;20859;-93
2022/11/05 00:30:12;;;;;;;10.03;9.03;;;10.00;99.90;;;;;;4976465;28;20630;-92
2022/11/05 00:32:45;;;;;;;17.00;15.30;;;9.90;99.90;;;;;;4984056;28;20625;-92
2022/11/05 00:35:12;;;;;;;30.73;27.77;;;10.10;99.90;;;;;;4982645;28;20651;-93
2022/11/05 00:37:39;;;;;;;22.83;20.57;;;10.10;99.90;;;;;;4973097;28;20668;-94
2022/11/05 00:40:07;;;;;;;12.73;11.53;;;10.00;99.90;;;;;;4967248;28;20665;-93
2022/11/05 00:45:20;;;;;;;10.70;9.80;;;9.50;99.90;;;;;;4971271;28;21193;-93
2022/11/05 00:50:32;;;;;;;17.37;15.63;;;9.90;99.90;;;;;;4948627;28;20695;-90
2022/11/05 00:52:59;;;;;;;13.80;12.60;;;10.00;99.90;;;;;;4964346;28;21159;-91
2022/11/05 00:55:36;;;;;;;15.33;14.00;;;10.20;99.90;;;;;;4965009;28;20673;-91
2022/11/05 00:58:04;;;;;;;11.77;10.87;;;9.70;99.90;;;;;;4965886;28;21234;-92
2022/11/05 01:00:35;;;;;;;9.13;8.43;;;9.70;99.90;;;;;;4967853;28;20633;-92
2022/11/05 01:03:03;;;;;;;8.30;7.60;;;9.70;99.90;;;;;;4961368;28;20648;-94
2022/11/05 01:05:31;;;;;;;7.47;6.80;;;10.00;99.90;;;;;;4968251;28;20634;-94
2022/11/05 01:07:59;;;;;;;7.50;6.90;;;10.00;99.90;;;;;;4966503;28;20653;-93
2022/11/05 01:10:26;;;;;;;7.53;7.03;;;10.10;99.90;;;;;;4962658;28;20650;-92
2022/11/05 01:12:53;;;;;;;8.03;7.27;;;9.70;99.90;;;;;;4969666;28;20641;-92
2022/11/05 01:15:21;;;;;;;8.00;7.40;;;10.30;99.90;;;;;;4963694;28;20666;-93
2022/11/05 01:17:50;;;;;;;7.80;7.03;;;9.80;99.90;;;;;;4967959;28;20658;-92
2022/11/05 01:20:17;;;;;;;6.77;6.10;;;9.70;99.90;;;;;;4969106;28;20633;-93
2022/11/05 01:22:57;;;;;;;7.00;6.40;;;10.10;99.90;;;;;;5218607;23;20673;-96
2022/11/05 01:25:25;;;;;;;8.50;7.03;;;10.10;99.90;;;;;;4999510;28;20580;-96
2022/11/05 01:27:52;;;;;;;5.90;5.40;;;10.10;99.90;;;;;;5038188;23;20696;-95
2022/11/05 01:30:19;;;;;;;6.80;6.10;;;9.60;99.90;;;;;;4966115;28;20628;-95
2022/11/05 01:32:46;;;;;;;7.00;6.40;;;10.10;99.90;;;;;;4977398;28;20638;-95
2022/11/05 01:35:15;;;;;;;6.57;6.07;;;9.90;99.90;;;;;;4957664;28;20665;-93
2022/11/05 01:37:43;;;;;;;8.50;6.30;;;9.60;99.90;;;;;;4969365;28;20666;-93
2022/11/05 01:40:11;;;;;;;6.23;5.73;;;9.80;99.90;;;;;;4972126;28;20633;-94
2022/11/05 01:42:38;;;;;;;7.83;7.03;;;10.30;99.90;;;;;;4973800;28;20635;-94
2022/11/05 01:45:12;;;;;;;8.50;6.20;;;10.30;99.90;;;;;;4974706;28;20625;-95
2022/11/05 01:47:45;;;;;;;6.33;5.47;;;10.20;99.90;;;;;;4973486;28;20660;-93
2022/11/05 01:50:37;;;;;;;6.30;5.70;;;10.20;99.90;;;;;;4970993;28;20641;-94
2022/11/05 01:53:09;;;;;;;6.73;5.37;;;10.30;99.90;;;;;;4976408;28;20634;-94
2022/11/05 01:55:43;;;;;;;5.87;5.37;;;10.10;99.90;;;;;;4965875;28;20666;-94
2022/11/05 01:58:12;;;;;;;5.67;5.27;;;10.40;99.90;;;;;;4974648;28;20661;-95
2022/11/05 02:00:41;;;;;;;5.70;5.23;;;9.90;99.90;;;;;;4966053;28;20736;-95
2022/11/05 02:03:08;;;;;;;6.13;5.63;;;10.20;99.90;;;;;;4976221;28;20651;-95
2022/11/05 02:05:37;;;;;;;5.30;4.80;;;10.20;99.90;;;;;;4972876;28;20641;-96
2022/11/05 02:08:27;;;;;;;5.53;5.00;;;9.80;99.90;;;;;;4980067;28;20672;-96
2022/11/05 02:10:54;;;;;;;5.10;4.70;;;9.80;99.90;;;;;;4983419;28;20709;-96
2022/11/05 02:13:21;;;;;;;5.60;5.10;;;9.80;99.90;;;;;;4987478;28;20628;-96
2022/11/05 02:18:59;;;;;;;3.90;3.60;;;10.20;99.90;;;;;;4996040;28;20656;-96
2022/11/05 02:22:05;;;;;;;4.17;3.87;;;10.10;99.90;;;;;;4987638;28;20720;-96
2022/11/05 02:25:00;;;;;;;3.23;2.90;;;10.20;99.90;;;;;;4981984;28;20723;-96
2022/11/05 02:28:25;;;;;;;3.60;3.30;;;10.10;99.90;;;;;;4993063;28;20664;-96
2022/11/05 02:33:55;;;;;;;3.80;3.50;;;10.00;99.90;;;;;;4981731;28;20625;-96
2022/11/05 02:36:34;;;;;;;3.70;3.40;;;10.10;99.90;;;;;;5002417;28;20659;-96
2022/11/05 02:39:13;;;;;;;4.07;3.70;;;10.10;99.90;;;;;;4986889;28;20736;-95
2022/11/05 02:41:48;;;;;;;3.67;3.47;;;10.10;99.90;;;;;;4984156;28;20625;-95
2022/11/05 02:44:24;;;;;;;3.80;3.50;;;10.10;99.90;;;;;;4977836;28;21064;-95
2022/11/05 02:46:58;;;;;;;3.43;3.13;;;10.10;99.90;;;;;;4979995;28;20637;-96
2022/11/05 02:49:37;;;;;;;3.40;3.10;;;10.10;99.90;;;;;;4997686;28;20642;-96
2022/11/05 02:52:09;;;;;;;3.57;3.27;;;10.10;99.90;;;;;;4998075;28;20642;-96
2022/11/05 02:54:42;;;;;;;3.37;2.50;;;10.10;99.90;;;;;;4999580;28;20629;-96
2022/11/05 02:57:12;;;;;;;3.17;2.70;;;10.10;99.90;;;;;;4978628;28;20633;-96
2022/11/05 02:59:58;;;;;;;3.07;2.80;;;10.00;99.90;;;;;;4975690;29;20591;-96
2022/11/05 03:19:44;;;;;;;2.53;2.33;;;10.30;99.90;;;;;;5146069;23;20695;-95
2022/11/05 03:22:23;;;;;;;2.77;2.43;;;10.00;99.90;;;;;;4994148;28;20644;-95
2022/11/05 03:24:54;;;;;;;3.27;2.50;;;9.70;99.90;;;;;;4971827;28;21174;-93
2022/11/05 03:27:26;;;;;;;3.30;2.90;;;9.80;99.90;;;;;;4998382;28;21080;-95
2022/11/05 03:29:59;;;;;;;2.60;2.40;;;10.00;99.90;;;;;;5012174;28;20668;-96
2022/11/05 03:32:27;;;;;;;2.60;2.40;;;9.60;99.90;;;;;;4982941;28;20669;-95
2022/11/05 03:35:01;;;;;;;2.67;2.47;;;9.60;99.90;;;;;;4992004;28;20640;-96
2022/11/05 03:37:32;;;;;;;2.57;2.37;;;10.00;99.90;;;;;;5005151;28;20632;-95
2022/11/05 03:40:01;;;;;;;3.10;2.50;;;10.00;99.90;;;;;;4994322;28;20625;-95
2022/11/05 03:42:34;;;;;;;3.03;2.67;;;10.00;99.90;;;;;;5002134;28;20703;-95
2022/11/05 03:45:09;;;;;;;2.57;2.40;;;10.00;99.90;;;;;;4995424;28;20655;-95
2022/11/05 03:47:46;;;;;;;2.63;2.43;;;10.00;99.90;;;;;;5002954;28;20636;-95
2022/11/05 03:50:20;;;;;;;2.97;2.67;;;10.00;99.90;;;;;;4980603;28;20632;-95
2022/11/05 03:52:53;;;;;;;2.67;2.47;;;9.80;99.90;;;;;;4990294;28;20706;-95
2022/11/05 03:55:22;;;;;;;3.57;2.90;;;10.00;99.90;;;;;;4980077;28;20668;-96
2022/11/05 03:57:54;;;;;;;2.90;2.67;;;10.00;99.90;;;;;;4989052;28;20640;-94
2022/11/05 04:00:22;;;;;;;2.67;2.47;;;10.00;99.90;;;;;;4994201;28;20640;-95
2022/11/05 04:02:49;;;;;;;3.90;2.47;;;10.00;99.90;;;;;;4994529;28;20641;-95
2022/11/05 04:05:18;;;;;;;2.90;2.70;;;10.00;99.90;;;;;;4993036;28;20621;-94
2022/11/05 04:13:30;;;;;;;3.57;2.37;;;10.00;99.90;;;;;;4944003;29;20631;-95
2022/11/05 04:18:41;;;;;;;2.93;2.73;;;9.60;99.90;;;;;;4967197;28;21422;-94
2022/11/05 04:24:11;;;;;;;2.73;2.20;;;10.30;99.90;;;;;;4983506;28;20625;-95
2022/11/05 04:26:40;;;;;;;2.67;2.40;;;9.70;99.90;;;;;;4983242;28;20637;-94
2022/11/05 04:31:52;;;;;;;2.50;2.13;;;9.70;99.90;;;;;;4986078;28;20573;-93
2022/11/05 04:34:21;;;;;;;2.43;2.00;;;10.20;99.90;;;;;;4987721;28;20644;-95
2022/11/05 04:36:50;;;;;;;2.30;2.10;;;10.20;99.90;;;;;;4984952;28;20664;-94
2022/11/05 04:39:19;;;;;;;2.60;2.50;;;10.10;99.90;;;;;;4982896;28;20965;-95
2022/11/05 04:41:47;;;;;;;2.10;2.00;;;10.00;99.90;;;;;;4988935;28;20632;-93
2022/11/05 04:44:16;;;;;;;2.40;2.20;;;10.20;99.90;;;;;;4987675;28;20806;-95
2022/11/05 04:46:43;;;;;;;1.50;1.40;;;10.10;99.90;;;;;;4994515;28;20642;-93
2022/11/05 04:49:11;;;;;;;3.80;1.50;;;9.70;99.90;;;;;;4990276;28;20731;-95
2022/11/05 04:51:38;;;;;;;2.23;2.13;;;10.10;99.90;;;;;;4997528;28;20637;-95
2022/11/05 04:54:07;;;;;;;4.03;1.70;;;10.10;99.90;;;;;;4996627;28;20739;-95
2022/11/05 04:56:34;;;;;;;1.53;1.43;;;9.80;99.90;;;;;;4994015;28;20740;-96
2022/11/05 04:59:01;;;;;;;1.97;1.87;;;10.10;99.90;;;;;;4992710;28;21196;-96
2022/11/05 05:01:57;;;;;;;1.67;1.57;;;10.00;99.90;;;;;;5004306;28;21040;-95
2022/11/05 05:04:24;;;;;;;2.03;1.93;;;10.10;99.90;;;;;;4995685;28;20724;-95
2022/11/05 05:06:51;;;;;;;2.13;2.03;;;10.00;99.90;;;;;;4990702;28;20628;-96
2022/11/05 05:09:20;;;;;;;3.03;2.47;;;10.00;99.90;;;;;;4995766;28;20732;-95
2022/11/05 05:11:57;;;;;;;2.63;2.40;;;9.70;99.90;;;;;;4998989;28;21173;-94
2022/11/05 05:14:25;;;;;;;2.70;2.50;;;9.90;99.90;;;;;;5008104;28;20732;-95
2022/11/05 05:16:51;;;;;;;4.40;3.07;;;10.10;99.90;;;;;;5002526;28;20663;-95
2022/11/05 05:19:19;;;;;;;3.20;3.00;;;9.70;99.90;;;;;;4997381;28;20648;-95
2022/11/05 05:21:47;;;;;;;2.47;2.37;;;10.20;99.90;;;;;;4991166;28;20642;-96
2022/11/05 05:24:16;;;;;;;2.90;2.57;;;9.60;99.90;;;;;;4984969;28;20660;-95
2022/11/05 05:26:46;;;;;;;2.73;2.53;;;9.60;99.90;;;;;;4988570;28;20660;-94
2022/11/05 05:29:14;;;;;;;2.90;2.70;;;9.60;99.90;;;;;;4986211;28;20645;-96
2022/11/05 05:31:42;;;;;;;2.93;2.60;;;9.60;99.90;;;;;;4985571;28;20649;-94
2022/11/05 05:34:11;;;;;;;2.90;2.70;;;9.50;99.90;;;;;;4989191;28;20656;-94
2022/11/05 05:36:38;;;;;;;2.77;2.53;;;9.90;99.90;;;;;;4988922;28;20668;-95
2022/11/05 05:39:06;;;;;;;2.73;2.60;;;10.30;99.90;;;;;;4991630;28;20640;-94
2022/11/05 05:41:33;;;;;;;2.87;2.67;;;10.00;99.90;;;;;;4975317;28;20645;-94
2022/11/05 05:44:05;;;;;;;2.87;2.67;;;10.00;99.90;;;;;;4997020;28;20633;-96
2022/11/05 05:46:43;;;;;;;3.50;3.30;;;9.50;99.90;;;;;;5012085;28;20629;-96
2022/11/05 05:49:17;;;;;;;3.10;2.90;;;9.80;99.90;;;;;;5014889;28;20632;-95
2022/11/05 06:04:47;;;;;;;3.70;3.40;;;9.90;99.90;;;;;;5034143;28;20628;-95
2022/11/05 06:08:13;;;;;;;2.67;2.47;;;9.80;99.90;;;;;;5005188;28;20613;-96
2022/11/05 06:55:38;;;;;;;16.20;14.67;;;10.10;99.90;;;;;;4999247;28;20656;-96
2022/11/05 06:58:05;;;;;;;18.30;16.70;;;10.00;99.90;;;;;;4999887;28;20635;-94
2022/11/05 07:00:33;;;;;;;16.90;15.70;;;10.00;99.90;;;;;;5004718;28;20675;-95
2022/11/05 07:03:15;;;;;;;17.30;15.90;;;10.00;99.90;;;;;;5012359;28;20633;-96
2022/11/05 07:08:30;;;;;;;18.23;16.60;;;10.00;99.90;;;;;;4982508;28;20640;-95
2022/11/05 07:10:59;;;;;;;18.43;16.87;;;10.00;99.90;;;;;;5016064;28;20643;-96
2022/11/05 07:16:19;;;;;;;18.73;17.37;;;10.00;99.90;;;;;;4996513;28;20646;-96
2022/11/05 07:18:51;;;;;;;17.73;16.40;;;10.00;99.90;;;;;;4996574;28;20625;-96
2022/11/05 07:21:23;;;;;;;18.90;17.40;;;10.10;99.90;;;;;;4990120;28;20621;-96
2022/11/05 07:24:10;;;;;;;19.20;17.50;;;10.10;99.90;;;;;;5006455;28;20633;-96
2022/11/05 07:29:30;;;;;;;19.60;18.17;;;10.30;99.90;;;;;;5009742;28;20708;-96
2022/11/05 07:35:30;;;;;;;18.20;16.80;;;10.50;99.90;;;;;;5006188;28;20581;-96
2022/11/05 07:47:23;;;;;;;17.40;16.00;;;10.70;99.90;;;;;;5013180;28;20668;-96
2022/11/05 07:52:37;;;;;;;18.30;16.90;;;10.60;99.90;;;;;;5012748;28;20636;-96
2022/11/05 07:55:05;;;;;;;18.40;17.10;;;10.70;99.90;;;;;;5010580;28;20659;-95
2022/11/05 07:57:33;;;;;;;18.17;16.67;;;10.70;99.90;;;;;;4996825;28;20740;-96
2022/11/05 08:00:02;;;;;;;17.77;16.43;;;10.70;99.90;;;;;;5014413;28;20703;-96
2022/11/05 08:02:30;;;;;;;18.80;17.20;;;10.70;99.90;;;;;;4994825;28;21261;-96
2022/11/05 08:04:57;;;;;;;18.63;17.07;;;10.70;99.90;;;;;;4993912;28;20641;-96
2022/11/05 08:10:16;;;;;;;18.30;16.50;;;10.70;99.90;;;;;;4990852;28;20684;-96
2022/11/05 08:12:56;;;;;;;17.80;16.37;;;10.70;99.90;;;;;;4989638;28;20637;-94
2022/11/05 08:15:24;;;;;;;24.30;16.37;;;10.30;99.90;;;;;;4996696;28;20632;-94
2022/11/05 08:17:58;;;;;;;18.90;17.20;;;10.30;99.90;;;;;;4992940;28;20675;-95
2022/11/05 08:20:26;;;;;;;17.57;15.90;;;10.50;99.90;;;;;;4986151;28;20668;-95
2022/11/05 08:22:53;;;;;;;18.70;17.20;;;10.30;99.90;;;;;;4990006;28;20697;-95
2022/11/05 08:25:23;;;;;;;17.73;16.43;;;10.60;99.90;;;;;;4992698;28;20653;-95
2022/11/05 08:27:55;;;;;;;17.47;16.07;;;10.60;99.90;;;;;;4990817;28;20632;-95
2022/11/05 08:30:23;;;;;;;23.30;21.20;;;10.20;99.90;;;;;;5000883;28;20663;-96
2022/11/05 08:32:52;;;;;;;24.83;22.83;;;10.60;99.90;;;;;;4999406;28;20621;-95
2022/11/05 08:35:19;;;;;;;26.70;24.53;;;10.50;99.90;;;;;;5000597;28;20698;-94
2022/11/05 08:37:47;;;;;;;30.20;27.37;;;10.50;99.90;;;;;;4991145;28;20671;-94
2022/11/05 08:40:14;;;;;;;22.17;20.37;;;10.60;99.90;;;;;;4992096;28;20668;-96
2022/11/05 08:42:42;;;;;;;18.23;16.73;;;10.60;99.90;;;;;;5005312;28;20650;-96
2022/11/05 08:45:11;;;;;;;17.73;16.33;;;10.50;99.90;;;;;;5001735;28;20659;-96
2022/11/05 08:47:40;;;;;;;13.50;12.30;;;10.10;99.90;;;;;;5001650;28;21075;-96
2022/11/05 08:50:08;;;;;;;13.17;12.07;;;10.00;99.90;;;;;;5002775;28;20718;-95
2022/11/05 08:52:35;;;;;;;17.07;15.47;;;10.20;99.90;;;;;;5003016;28;20640;-95
2022/11/05 08:55:02;;;;;;;10.53;9.70;;;9.70;99.90;;;;;;4995319;28;20641;-95
2022/11/05 08:57:29;;;;;;;9.80;9.10;;;10.10;99.90;;;;;;4999436;28;20667;-95
2022/11/05 08:59:57;;;;;;;19.00;16.80;;;9.90;99.90;;;;;;4988829;28;20671;-95
2022/11/05 09:02:28;;;;;;;10.47;9.57;;;10.00;99.90;;;;;;4986185;28;20649;-95
2022/11/05 09:04:57;;;;;;;9.43;8.63;;;9.40;99.90;;;;;;4987580;28;20634;-95
2022/11/05 09:07:28;;;;;;;10.30;9.30;;;9.80;99.90;;;;;;4996730;28;20709;-95
2022/11/05 09:12:38;;;;;;;9.53;8.73;;;9.50;99.90;;;;;;5002310;28;21146;-96
2022/11/05 09:17:53;;;;;;;18.10;16.50;;;9.70;99.90;;;;;;5002636;28;20750;-96
2022/11/05 09:20:23;;;;;;;12.20;10.87;;;9.80;99.90;;;;;;5006561;28;20679;-96
2022/11/05 09:22:51;;;;;;;5.23;4.93;;;9.80;99.90;;;;;;5000454;28;20657;-96
2022/11/05 09:25:19;;;;;;;13.97;12.70;;;9.70;99.90;;;;;;4999301;28;20665;-96
2022/11/05 09:30:29;;;;;;;10.40;9.47;;;9.80;99.90;;;;;;5001127;28;20702;-96
2022/11/05 09:32:58;;;;;;;13.87;12.67;;;9.80;99.90;;;;;;4996239;28;20735;-95
2022/11/05 09:35:57;;;;;;;11.30;10.30;;;9.80;99.90;;;;;;5005102;28;20657;-95
2022/11/05 09:38:25;;;;;;;8.70;8.00;;;9.80;99.90;;;;;;5002649;28;20684;-96
2022/11/05 09:43:42;;;;;;;6.07;5.63;;;9.90;99.90;;;;;;5004295;28;20617;-96
2022/11/05 09:46:18;;;;;;;7.90;7.30;;;9.80;99.90;;;;;;5011358;28;21271;-96
2022/11/05 09:48:48;;;;;;;8.73;7.93;;;9.80;99.90;;;;;;5004928;28;20635;-96
2022/11/05 09:51:20;;;;;;;8.53;7.90;;;9.80;99.90;;;;;;5011365;28;20647;-96
2022/11/05 09:54:04;;;;;;;12.90;11.90;;;9.80;99.90;;;;;;5002123;28;20764;-96
2022/11/05 09:59:29;;;;;;;14.37;13.27;;;9.80;99.90;;;;;;5012528;28;20637;-96
2022/11/05 10:02:13;;;;;;;11.03;10.13;;;9.90;99.90;;;;;;5002824;28;20720;-95
2022/11/05 10:04:42;;;;;;;9.57;8.77;;;9.80;99.90;;;;;;5005480;28;20709;-95
2022/11/05 10:07:15;;;;;;;9.73;9.03;;;9.50;99.90;;;;;;5012865;28;20620;-96
2022/11/05 10:09:49;;;;;;;9.57;8.77;;;9.80;99.90;;;;;;5002357;28;20756;-96
2022/11/05 10:12:22;;;;;;;11.30;10.30;;;9.80;99.90;;;;;;4984231;28;20744;-94
2022/11/05 10:14:53;;;;;;;14.43;13.23;;;9.70;99.90;;;;;;4990891;28;21224;-93
2022/11/05 10:17:24;;;;;;;12.30;11.40;;;9.80;99.90;;;;;;4984880;28;20665;-94
2022/11/05 10:19:56;;;;;;;18.90;17.30;;;9.90;99.90;;;;;;4990877;28;20664;-93
2022/11/05 10:22:24;;;;;;;14.80;13.60;;;9.50;99.90;;;;;;4979731;28;20968;-93
2022/11/05 10:24:53;;;;;;;11.93;11.03;;;9.70;99.90;;;;;;4979048;28;20624;-94
2022/11/05 10:27:24;;;;;;;11.70;10.60;;;10.00;99.90;;;;;;4973711;28;20625;-93
2022/11/05 10:29:51;;;;;;;11.70;10.50;;;10.20;99.90;;;;;;4983073;28;20651;-92
2022/11/05 10:32:26;;;;;;;13.27;12.27;;;10.10;99.90;;;;;;4991593;28;20636;-93
2022/11/05 10:34:56;;;;;;;13.60;12.33;;;9.90;99.90;;;;;;4983608;28;21012;-92
2022/11/05 10:37:24;;;;;;;14.73;12.30;;;9.90;99.90;;;;;;4982737;28;20665;-93
2022/11/05 10:39:52;;;;;;;12.17;11.23;;;10.00;99.90;;;;;;4985762;28;20660;-93
2022/11/05 10:42:39;;;;;;;14.10;12.97;;;10.00;99.90;;;;;;4985927;28;20636;-93
2022/11/05 10:45:18;;;;;;;14.50;13.03;;;10.00;99.90;;;;;;4978110;28;20715;-92
2022/11/05 10:47:56;;;;;;;13.13;12.00;;;10.20;99.90;;;;;;4980476;28;20628;-92
2022/11/05 10:50:25;;;;;;;14.13;12.73;;;10.20;99.90;;;;;;4981281;28;20657;-93
2022/11/05 10:52:59;;;;;;;11.97;10.87;;;9.80;99.90;;;;;;4982671;28;21194;-92
2022/11/05 10:55:30;;;;;;;12.20;11.20;;;10.00;99.90;;;;;;4987634;28;20728;-92
2022/11/05 10:58:08;;;;;;;13.53;12.33;;;10.10;99.90;;;;;;4993158;28;20651;-92
2022/11/05 11:00:37;;;;;;;13.60;12.40;;;10.40;99.90;;;;;;4986368;28;20680;-92
2022/11/05 11:03:06;;;;;;;12.00;10.90;;;10.30;99.90;;;;;;4988450;28;20632;-91
2022/11/05 11:05:37;;;;;;;12.27;11.23;;;10.10;99.90;;;;;;4980850;28;20703;-91
2022/11/05 11:08:23;;;;;;;12.93;11.83;;;10.20;99.90;;;;;;4983323;28;20688;-91
2022/11/05 11:10:54;;;;;;;13.57;12.17;;;10.50;99.90;;;;;;4987519;28;20651;-91
2022/11/05 11:13:25;;;;;;;12.60;11.33;;;10.20;99.90;;;;;;4982443;28;20621;-92
2022/11/05 11:15:52;;;;;;;12.37;11.37;;;10.50;99.90;;;;;;4988671;28;20616;-91
2022/11/05 11:18:29;;;;;;;11.70;10.67;;;10.60;99.90;;;;;;4977947;28;20684;-92
2022/11/05 11:21:07;;;;;;;12.10;10.80;;;10.20;99.90;;;;;;4981269;28;20628;-91
2022/11/05 11:23:38;;;;;;;12.57;11.37;;;10.50;99.90;;;;;;4984177;28;20629;-91
2022/11/05 11:26:08;;;;;;;11.67;10.50;;;10.50;99.90;;;;;;4977344;28;21185;-91
2022/11/05 11:28:37;;;;;;;10.90;10.00;;;10.30;99.90;;;;;;4979034;28;20640;-91
2022/11/05 11:31:08;;;;;;;11.00;9.90;;;10.30;99.90;;;;;;4983695;28;20635;-90
2022/11/05 11:33:37;;;;;;;11.00;10.03;;;10.30;99.90;;;;;;4992168;28;20628;-91
2022/11/05 11:36:06;;;;;;;11.53;10.50;;;10.70;99.90;;;;;;4977135;28;20628;-92
2022/11/05 11:38:34;;;;;;;14.43;13.20;;;10.80;99.90;;;;;;4983828;28;20663;-90
2022/11/05 11:41:13;;;;;;;18.50;16.70;;;10.40;99.90;;;;;;4986978;28;20749;-90
2022/11/05 11:43:42;;;;;;;23.27;20.97;;;11.20;99.90;;;;;;4986079;28;20621;-91
2022/11/05 11:46:15;;;;;;;22.60;20.20;;;10.80;99.90;;;;;;4981116;28;20645;-90
2022/11/05 11:48:44;;;;;;;17.13;15.43;;;11.20;99.90;;;;;;4985465;28;20624;-91
2022/11/05 11:51:33;;;;;;;13.50;12.33;;;11.50;99.90;;;;;;4982351;28;20672;-91
2022/11/05 11:54:02;;;;;;;17.97;16.20;;;11.60;99.90;;;;;;4983909;28;20628;-91
2022/11/05 11:56:43;;;;;;;24.30;21.83;;;11.70;99.90;;;;;;4968564;28;20628;-90
2022/11/05 11:59:20;;;;;;;17.83;16.03;;;11.70;99.90;;;;;;4979846;28;20688;-90
2022/11/05 12:02:14;;;;;;;11.27;10.23;;;11.80;99.90;;;;;;4993052;28;20623;-90
2022/11/05 12:05:07;;;;;;;15.40;13.90;;;12.10;99.90;;;;;;4982410;28;20624;-91
2022/11/05 12:07:44;;;;;;;9.37;8.57;;;12.20;99.90;;;;;;4971051;28;20636;-91
2022/11/05 12:10:28;;;;;;;23.87;21.50;;;11.90;99.90;;;;;;4979493;28;21508;-89
2022/11/05 12:13:25;;;;;;;22.27;20.13;;;12.40;99.90;;;;;;4986687;28;20626;-90
2022/11/05 12:15:55;;;;;;;8.90;8.20;;;12.30;99.90;;;;;;4990815;28;21219;-90
2022/11/05 12:18:30;;;;;;;7.97;7.23;;;12.90;1.00;;;;;;4978997;28;20669;-90
2022/11/05 12:21:07;;;;;;;10.70;9.60;;;13.70;1.00;;;;;;4982886;28;20696;-90
2022/11/05 12:24:08;;;;;;;11.60;10.50;;;14.10;1.00;;;;;;4985439;28;21188;-89
2022/11/05 12:26:46;;;;;;;8.40;7.70;;;14.30;1.00;;;;;;4936615;28;20672;-90
2022/11/05 12:29:42;;;;;;;9.83;8.93;;;14.40;1.00;;;;;;4982415;28;20654;-90
2022/11/05 12:32:37;;;;;;;9.07;8.20;;;14.50;1.00;;;;;;4980511;28;20636;-90
2022/11/05 12:35:18;;;;;;;7.50;6.80;;;14.90;99.90;;;;;;4967835;28;20674;-90
2022/11/05 12:37:53;;;;;;;7.53;6.83;;;15.40;99.90;;;;;;4983572;28;20794;-89
2022/11/05 12:40:45;;;;;;;6.07;5.57;;;15.90;99.90;;;;;;4983732;28;21017;-90
2022/11/05 12:43:19;;;;;;;8.77;6.80;;;15.90;99.90;;;;;;4980508;28;20665;-90
2022/11/05 12:45:55;;;;;;;6.40;5.70;;;15.90;99.90;;;;;;4984000;28;20635;-90
2022/11/05 12:48:38;;;;;;;6.10;5.50;;;15.60;1.00;;;;;;4984891;28;21007;-90
2022/11/05 12:51:17;;;;;;;8.03;6.73;;;15.60;83.30;;;;;;4976012;28;20655;-89
2022/11/05 12:53:56;;;;;;;8.03;7.33;;;15.20;99.90;;;;;;4981423;28;20636;-89
2022/11/05 12:56:30;;;;;;;7.87;7.07;;;15.10;99.90;;;;;;4986109;28;20723;-89
2022/11/05 12:59:04;;;;;;;5.70;5.20;;;14.90;99.90;;;;;;4979919;28;20695;-90
2022/11/05 13:01:36;;;;;;;6.40;5.20;;;14.70;99.90;;;;;;4978902;28;20656;-90
2022/11/05 13:04:08;;;;;;;5.70;5.10;;;14.50;99.90;;;;;;4976994;28;20634;-91
2022/11/05 13:06:39;;;;;;;7.60;7.00;;;14.30;1.00;;;;;;4983991;28;20636;-91
2022/11/05 13:09:13;;;;;;;7.10;6.40;;;14.20;1.00;;;;;;4986081;28;21060;-91
2022/11/05 13:11:45;;;;;;;6.50;5.90;;;14.10;99.90;;;;;;4982985;28;20649;-90
2022/11/05 13:14:17;;;;;;;6.93;6.33;;;14.00;1.00;;;;;;4978312;28;20641;-89
2022/11/05 13:16:49;;;;;;;6.20;5.70;;;14.00;1.00;;;;;;4988856;28;21189;-90
2022/11/05 13:19:21;;;;;;;5.67;5.27;;;13.80;1.00;;;;;;4986144;28;20675;-89
2022/11/05 13:21:54;;;;;;;5.67;5.07;;;13.80;1.00;;;;;;4982573;28;20679;-91
2022/11/05 13:24:25;;;;;;;5.00;4.47;;;13.60;1.00;;;;;;4978805;28;20643;-89
2022/11/05 13:26:56;;;;;;;5.77;5.27;;;13.60;99.90;;;;;;4981654;28;21084;-90
2022/11/05 13:29:28;;;;;;;5.87;5.47;;;13.40;1.00;;;;;;4986175;28;20629;-89
2022/11/05 13:32:02;;;;;;;5.37;4.97;;;13.20;1.00;;;;;;4982952;28;20678;-89
2022/11/05 13:34:28;;;;;;;5.60;5.10;;;13.10;1.00;;;;;;4978711;28;20625;-89
2022/11/05 13:39:46;;;;;;;6.70;6.20;;;12.80;1.00;;;;;;4988404;28;20683;-89
2022/11/05 13:42:40;;;;;;;7.20;6.70;;;12.40;1.00;;;;;;4981189;28;20660;-89
2022/11/05 13:45:22;;;;;;;6.67;6.10;;;12.20;1.00;;;;;;4979376;28;20636;-89
2022/11/05 13:48:14;;;;;;;7.57;6.87;;;12.60;1.00;;;;;;4987532;28;20629;-89
2022/11/05 13:51:00;;;;;;;6.83;6.23;;;12.50;1.00;;;;;;4953929;28;20950;-88
2022/11/05 13:53:57;;;;;;;7.10;6.60;;;12.50;1.00;;;;;;4977914;28;20680;-88
2022/11/05 13:56:38;;;;;;;7.47;6.83;;;12.40;1.00;;;;;;4962649;28;20653;-88
2022/11/05 13:59:38;;;;;;;7.23;6.53;;;12.30;1.00;;;;;;4979161;28;20664;-89
2022/11/05 14:02:14;;;;;;;7.40;6.70;;;12.40;1.00;;;;;;4949681;28;20676;-88
2022/11/05 14:04:46;;;;;;;7.23;6.73;;;12.30;2.40;;;;;;4979562;28;20624;-89
2022/11/05 14:07:18;;;;;;;6.43;5.70;;;12.00;1.00;;;;;;4975621;28;20608;-88
2022/11/05 14:09:47;;;;;;;6.07;5.27;;;12.20;1.00;;;;;;4976198;28;20688;-88
2022/11/05 14:12:23;;;;;;;5.83;4.43;;;12.20;1.00;;;;;;4976067;28;20664;-90
2022/11/05 14:14:55;;;;;;;4.77;4.37;;;12.00;1.00;;;;;;4985338;28;20627;-89
2022/11/05 14:17:32;;;;;;;4.57;4.17;;;12.20;1.00;;;;;;4985378;28;20644;-89
2022/11/05 14:20:38;;;;;;;5.77;4.90;;;11.80;99.90;;;;;;4979751;28;20620;-88
2022/11/05 14:23:29;;;;;;;5.13;4.63;;;11.90;99.90;;;;;;4974395;28;20669;-89
2022/11/05 14:26:11;;;;;;;5.33;4.63;;;11.50;99.90;;;;;;4985240;28;20623;-89
2022/11/05 14:28:44;;;;;;;6.93;5.80;;;12.00;99.90;;;;;;4979493;28;20624;-88
2022/11/05 14:31:24;;;;;;;4.57;4.27;;;11.90;99.90;;;;;;4977755;28;20645;-87
2022/11/05 14:34:17;;;;;;;8.00;4.80;;;11.40;99.90;;;;;;4977263;28;20639;-88
2022/11/05 14:37:02;;;;;;;8.83;5.13;;;11.50;99.90;;;;;;4974206;28;20761;-87
2022/11/05 14:39:31;;;;;;;6.53;5.83;;;11.70;99.90;;;;;;4980830;28;20660;-86
2022/11/05 14:42:03;;;;;;;5.93;5.33;;;11.60;99.90;;;;;;4978291;28;20668;-88
2022/11/05 14:44:32;;;;;;;8.17;6.03;;;11.50;99.90;;;;;;4983019;28;20721;-88
2022/11/05 14:47:02;;;;;;;5.83;5.30;;;11.60;99.90;;;;;;4978462;28;21248;-86
2022/11/05 14:49:31;;;;;;;6.23;5.70;;;11.50;99.90;;;;;;4984337;28;20627;-88
2022/11/05 14:52:06;;;;;;;7.17;5.20;;;11.20;99.90;;;;;;4976817;28;20662;-87
2022/11/05 14:54:40;;;;;;;5.97;5.00;;;11.60;99.90;;;;;;4983436;28;20678;-88
2022/11/05 14:57:12;;;;;;;5.67;5.17;;;11.40;99.90;;;;;;4979205;28;20623;-88
2022/11/05 14:59:59;;;;;;;6.13;5.53;;;11.20;99.90;;;;;;4976650;28;20681;-89
2022/11/05 15:02:31;;;;;;;8.50;5.80;;;11.30;99.90;;;;;;4977089;28;20632;-88
2022/11/05 15:05:42;;;;;;;6.67;5.33;;;10.70;99.90;;;;;;4980797;28;21552;-88
2022/11/05 15:08:31;;;;;;;6.20;5.60;;;11.40;99.90;;;;;;4932072;28;21013;-88
2022/11/05 15:11:12;;;;;;;11.13;9.73;;;11.30;99.90;;;;;;4978005;28;20623;-88
2022/11/05 15:13:48;;;;;;;7.50;5.50;;;11.20;99.90;;;;;;4978060;28;20626;-89
2022/11/05 15:16:23;;;;;;;7.43;5.93;;;11.40;99.90;;;;;;4978312;28;20732;-88
2022/11/05 15:18:52;;;;;;;13.10;10.07;;;10.70;99.90;;;;;;4981977;28;20723;-88
2022/11/05 15:21:21;;;;;;;5.93;5.33;;;10.70;99.90;;;;;;4978112;28;20661;-89
2022/11/05 15:23:53;;;;;;;6.43;5.13;;;11.00;99.90;;;;;;4984252;28;20612;-88
2022/11/05 15:26:26;;;;;;;7.70;7.10;;;11.20;99.90;;;;;;4981112;28;20629;-88
2022/11/05 15:28:54;;;;;;;10.53;9.43;;;10.80;99.90;;;;;;4982396;28;20624;-88
2022/11/05 15:31:28;;;;;;;12.13;7.93;;;11.00;99.90;;;;;;4982662;28;20661;-88
2022/11/05 15:34:16;;;;;;;10.73;9.27;;;10.70;99.90;;;;;;4980764;28;20655;-89
2022/11/05 15:36:48;;;;;;;10.97;8.17;;;10.90;99.90;;;;;;4982857;28;20625;-88
2022/11/05 15:39:25;;;;;;;6.73;6.10;;;10.90;99.90;;;;;;4984211;28;20676;-90
2022/11/05 15:41:51;;;;;;;15.00;13.40;;;10.70;99.90;;;;;;4984310;28;20632;-89
2022/11/05 15:44:27;;;;;;;15.50;14.00;;;10.80;99.90;;;;;;4984385;28;20699;-88
2022/11/05 15:47:18;;;;;;;12.77;11.40;;;10.50;99.90;;;;;;4978244;28;21163;-88
2022/11/05 15:49:47;;;;;;;9.23;8.33;;;10.60;99.90;;;;;;4982986;28;20720;-88
2022/11/05 15:52:15;;;;;;;7.87;6.83;;;10.70;99.90;;;;;;4985787;28;20659;-89
2022/11/05 15:54:44;;;;;;;8.07;6.90;;;10.80;99.90;;;;;;4977687;28;21248;-89
2022/11/05 15:57:22;;;;;;;6.67;6.07;;;10.70;99.90;;;;;;4986618;28;20716;-90